Time;durP1;ratioP1;P1;durP2;ratioP2;P2;SDS_P1;SDS_P2;PMS_P1;PMS_P2;Temp;Humidity;BMP_temperature;BMP_pressure;BME280_temperature;BME280_humidity;BME280_pressure;Samples;Min_cycle;Max_cycle;Signal;HPM_P1;HPM_P2
2022/12/30 00:01:17;;;;;;;5.15;2.30;;;11.40;99.90;;;;;;5071610;28;20322;-78
2022/12/30 00:03:45;;;;;;;7.07;1.92;;;11.30;99.90;;;;;;5072034;28;20220;-80
2022/12/30 00:06:17;;;;;;;7.75;5.75;;;11.30;99.90;;;;;;5038616;28;20288;-78
2022/12/30 00:08:48;;;;;;;12.07;6.32;;;11.30;99.90;;;;;;5062880;28;20228;-79
2022/12/30 00:11:25;;;;;;;15.40;11.68;;;11.30;99.90;;;;;;5072267;28;20228;-79
2022/12/30 00:33:53;;;;;;;9.93;6.10;;;11.40;99.90;;;;;;5059117;28;20673;-80
2022/12/30 00:36:26;;;;;;;4.80;3.15;;;11.40;99.90;;;;;;5071801;28;20211;-78
2022/12/30 00:38:54;;;;;;;4.68;3.72;;;11.40;99.90;;;;;;5072220;28;20224;-80
2022/12/30 00:44:05;;;;;;;5.20;4.00;;;11.40;99.90;;;;;;5071108;28;20757;-79
2022/12/30 00:46:34;;;;;;;5.47;3.58;;;11.50;99.90;;;;;;5072459;28;20302;-78
2022/12/30 00:57:17;;;;;;;7.43;5.15;;;11.30;99.90;;;;;;5070004;28;20230;-78
2022/12/30 00:59:44;;;;;;;16.50;11.15;;;11.30;99.90;;;;;;5058643;28;20224;-81
2022/12/30 01:02:14;;;;;;;15.38;7.50;;;11.20;99.90;;;;;;5070600;28;20314;-78
2022/12/30 01:04:43;;;;;;;16.63;11.60;;;11.20;99.90;;;;;;5071276;28;20223;-79
2022/12/30 01:07:10;;;;;;;17.05;10.43;;;11.20;99.90;;;;;;5070468;28;20597;-78
2022/12/30 01:09:38;;;;;;;14.60;9.27;;;11.20;99.90;;;;;;5064738;28;20239;-80
2022/12/30 01:12:08;;;;;;;11.68;5.93;;;11.20;99.90;;;;;;5071057;28;20220;-78
2022/12/30 01:14:37;;;;;;;21.05;13.68;;;11.10;99.90;;;;;;5074530;28;20219;-78
2022/12/30 01:17:08;;;;;;;20.05;13.38;;;11.20;99.90;;;;;;5070588;28;20220;-79
2022/12/30 01:19:36;;;;;;;12.38;7.85;;;11.10;99.90;;;;;;5072523;28;20228;-78
2022/12/30 01:22:05;;;;;;;10.60;6.05;;;11.10;99.90;;;;;;5080390;28;20234;-79
2022/12/30 01:24:32;;;;;;;10.60;5.03;;;11.10;99.90;;;;;;5085120;28;20227;-78
2022/12/30 01:27:00;;;;;;;8.20;4.50;;;11.10;99.90;;;;;;5086434;28;20285;-77
2022/12/30 01:29:29;;;;;;;4.85;3.35;;;11.00;99.90;;;;;;5077783;28;20238;-77
2022/12/30 01:31:57;;;;;;;7.93;4.25;;;11.00;99.90;;;;;;5074816;28;20654;-77
2022/12/30 01:34:24;;;;;;;12.00;2.75;;;11.10;99.90;;;;;;5071227;28;20223;-78
2022/12/30 01:36:53;;;;;;;3.75;2.58;;;11.00;99.90;;;;;;5045037;28;20228;-78
2022/12/30 01:39:22;;;;;;;6.00;2.67;;;11.00;99.90;;;;;;5051510;28;20229;-79
2022/12/30 01:41:49;;;;;;;4.00;2.60;;;11.00;99.90;;;;;;5070186;28;20224;-80
2022/12/30 01:44:50;;;;;;;6.03;2.10;;;11.00;99.90;;;;;;5073394;28;20673;-80
2022/12/30 01:47:22;;;;;;;10.98;6.22;;;11.00;99.90;;;;;;5064315;28;20668;-80
2022/12/30 01:49:52;;;;;;;9.50;5.77;;;10.90;99.90;;;;;;5025956;28;1317555;-78
2022/12/30 01:52:22;;;;;;;7.88;2.80;;;10.90;99.90;;;;;;5073874;28;20493;-78
2022/12/30 01:54:53;;;;;;;10.02;6.95;;;10.90;99.90;;;;;;5074936;28;20289;-78
2022/12/30 01:57:20;;;;;;;8.90;5.78;;;10.90;99.90;;;;;;5073451;28;20247;-78
2022/12/30 01:59:48;;;;;;;35.35;17.77;;;10.90;99.90;;;;;;5060343;28;20366;-78
2022/12/30 02:02:17;;;;;;;8.60;4.82;;;10.90;99.90;;;;;;5072869;28;20619;-78
2022/12/30 02:04:45;;;;;;;16.48;9.77;;;10.80;99.90;;;;;;5073956;28;20670;-79
2022/12/30 02:07:18;;;;;;;16.05;10.95;;;10.90;99.90;;;;;;5071464;28;20641;-80
2022/12/30 02:09:47;;;;;;;8.27;5.35;;;10.90;99.90;;;;;;5059843;28;20596;-78
2022/12/30 02:12:15;;;;;;;11.23;7.40;;;10.80;99.90;;;;;;5074298;28;20224;-80
2022/12/30 02:14:44;;;;;;;10.20;3.97;;;10.80;99.90;;;;;;5074203;28;20314;-79
2022/12/30 02:17:20;;;;;;;10.60;5.65;;;10.80;99.90;;;;;;5076710;28;20289;-78
2022/12/30 02:20:23;;;;;;;14.25;8.85;;;10.80;99.90;;;;;;5078226;28;20224;-80
2022/12/30 02:23:08;;;;;;;6.32;3.58;;;10.80;99.90;;;;;;5083177;28;21048;-79
2022/12/30 02:26:07;;;;;;;4.40;3.42;;;10.80;99.90;;;;;;5077370;28;20303;-78
2022/12/30 02:29:09;;;;;;;12.43;4.32;;;10.80;99.90;;;;;;5076819;28;20329;-78
2022/12/30 02:31:48;;;;;;;5.55;2.65;;;10.70;99.90;;;;;;5082918;28;20299;-79
2022/12/30 02:34:21;;;;;;;21.83;12.52;;;10.70;99.90;;;;;;5072170;28;20314;-77
2022/12/30 02:37:03;;;;;;;7.93;2.60;;;10.70;99.90;;;;;;5080209;28;20240;-78
2022/12/30 02:39:36;;;;;;;6.43;3.58;;;10.80;99.90;;;;;;5079007;28;20549;-78
2022/12/30 02:45:01;;;;;;;7.70;4.15;;;10.80;99.90;;;;;;5077789;28;20215;-79
2022/12/30 02:47:46;;;;;;;6.10;4.05;;;10.80;99.90;;;;;;5079359;28;20588;-77
2022/12/30 02:53:07;;;;;;;12.00;7.82;;;10.80;99.90;;;;;;5080677;28;20731;-77
2022/12/30 02:55:34;;;;;;;8.38;3.90;;;10.80;99.90;;;;;;5080996;28;20693;-79
2022/12/30 02:58:01;;;;;;;7.63;4.55;;;10.80;99.90;;;;;;5075615;28;20232;-77
2022/12/30 03:06:52;;;;;;;5.47;4.05;;;10.80;99.90;;;;;;5073897;28;20573;-79
2022/12/30 03:09:28;;;;;;;4.55;2.75;;;10.80;99.90;;;;;;5071506;28;20242;-79
2022/12/30 03:12:02;;;;;;;26.67;12.35;;;10.70;99.90;;;;;;5074139;28;20323;-79
2022/12/30 03:14:34;;;;;;;11.68;4.93;;;10.70;99.90;;;;;;5074030;28;20225;-77
2022/12/30 03:17:07;;;;;;;15.32;7.35;;;10.70;99.90;;;;;;5074594;28;20281;-80
2022/12/30 03:19:40;;;;;;;9.23;4.43;;;10.60;99.90;;;;;;5073393;28;20220;-80
2022/12/30 03:27:03;;;;;;;5.95;3.50;;;10.70;99.90;;;;;;5072803;28;20297;-78
2022/12/30 03:27:45;;;;;;;11.98;6.70;;;10.70;99.90;;;;;;5073492;28;20227;-79
2022/12/30 03:30:13;;;;;;;7.07;4.35;;;10.70;99.90;;;;;;5072896;28;20799;-78
2022/12/30 03:32:40;;;;;;;4.90;2.70;;;10.70;99.90;;;;;;5073024;28;20306;-77
2022/12/30 03:35:10;;;;;;;5.28;2.15;;;10.70;99.90;;;;;;5072445;28;20554;-79
2022/12/30 03:37:42;;;;;;;4.00;1.95;;;10.70;99.90;;;;;;5074585;28;20223;-78
2022/12/30 03:40:15;;;;;;;6.25;3.67;;;10.70;99.90;;;;;;5073990;28;20258;-78
2022/12/30 03:42:43;;;;;;;2.75;2.20;;;10.70;99.90;;;;;;5074379;28;20224;-77
2022/12/30 03:45:12;;;;;;;5.43;1.80;;;10.60;99.90;;;;;;5073381;28;20223;-77
2022/12/30 03:47:39;;;;;;;2.75;2.30;;;10.70;99.90;;;;;;5074656;28;20224;-77
2022/12/30 03:50:08;;;;;;;4.95;1.98;;;10.60;99.90;;;;;;5074031;28;20240;-79
2022/12/30 03:52:35;;;;;;;16.17;9.45;;;10.60;99.90;;;;;;5072958;28;20219;-78
2022/12/30 03:55:03;;;;;;;7.95;3.65;;;10.50;99.90;;;;;;5063629;28;20338;-77
2022/12/30 03:57:33;;;;;;;6.13;3.50;;;10.50;99.90;;;;;;5073549;28;20232;-77
2022/12/30 04:00:00;;;;;;;6.18;4.20;;;10.50;99.90;;;;;;5073279;28;20243;-77
2022/12/30 04:02:27;;;;;;;8.52;4.57;;;10.50;99.90;;;;;;5073182;28;20250;-77
2022/12/30 04:04:55;;;;;;;11.38;4.28;;;10.50;99.90;;;;;;5073502;28;20250;-77
2022/12/30 04:07:23;;;;;;;7.22;4.07;;;10.50;99.90;;;;;;5073932;28;20285;-79
2022/12/30 04:09:50;;;;;;;6.10;3.60;;;10.40;99.90;;;;;;5073677;28;20228;-77
2022/12/30 04:12:17;;;;;;;7.65;3.50;;;10.50;99.90;;;;;;5073201;28;20709;-79
2022/12/30 04:14:44;;;;;;;8.52;3.22;;;10.40;99.90;;;;;;5073462;28;20244;-79
2022/12/30 04:17:11;;;;;;;13.65;8.88;;;10.40;99.90;;;;;;5073052;28;20239;-80
2022/12/30 04:19:38;;;;;;;24.70;14.73;;;10.40;99.90;;;;;;5073262;28;20232;-77
2022/12/30 04:22:05;;;;;;;16.55;8.57;;;10.50;99.90;;;;;;5073637;28;20231;-77
2022/12/30 04:24:33;;;;;;;7.57;6.55;;;10.40;99.90;;;;;;5074424;28;20244;-79
2022/12/30 04:27:00;;;;;;;4.50;3.03;;;10.50;99.90;;;;;;5074595;28;20226;-79
2022/12/30 04:29:27;;;;;;;6.72;2.00;;;10.40;99.90;;;;;;5072497;28;20220;-79
2022/12/30 04:31:54;;;;;;;5.40;2.40;;;10.40;99.90;;;;;;5073704;28;20223;-77
2022/12/30 04:34:21;;;;;;;7.22;3.67;;;10.40;99.90;;;;;;5073731;28;20266;-77
2022/12/30 04:36:48;;;;;;;7.80;5.03;;;10.40;99.90;;;;;;5072519;28;20252;-77
2022/12/30 04:39:15;;;;;;;5.50;2.88;;;10.40;99.90;;;;;;5072842;28;20323;-77
2022/12/30 04:41:44;;;;;;;3.38;1.65;;;10.40;99.90;;;;;;5073525;28;20231;-79
2022/12/30 04:44:11;;;;;;;6.50;1.63;;;10.30;99.90;;;;;;5072115;28;20281;-79
2022/12/30 04:46:38;;;;;;;5.68;2.70;;;10.20;99.90;;;;;;5072633;28;20224;-79
2022/12/30 04:49:06;;;;;;;4.45;1.55;;;10.20;99.90;;;;;;5073574;28;20228;-78
2022/12/30 04:51:33;;;;;;;5.45;2.38;;;10.10;99.90;;;;;;5073060;28;20220;-79
2022/12/30 04:54:00;;;;;;;8.05;3.88;;;10.10;99.90;;;;;;5073712;28;20640;-79
2022/12/30 04:56:27;;;;;;;18.50;11.35;;;10.20;99.90;;;;;;5073551;28;20274;-79
2022/12/30 04:58:55;;;;;;;9.32;5.68;;;10.20;99.90;;;;;;5073210;28;20580;-77
2022/12/30 05:01:22;;;;;;;13.65;6.75;;;10.20;99.90;;;;;;5064159;28;20628;-77
2022/12/30 05:03:49;;;;;;;7.35;3.30;;;10.20;99.90;;;;;;5073804;28;20220;-79
2022/12/30 05:06:16;;;;;;;12.52;7.07;;;10.20;99.90;;;;;;5072717;28;20266;-79
2022/12/30 05:08:44;;;;;;;17.38;13.07;;;10.20;99.90;;;;;;5072565;28;20215;-77
2022/12/30 05:11:13;;;;;;;10.27;5.10;;;10.20;99.90;;;;;;5074697;28;20235;-77
2022/12/30 05:13:40;;;;;;;11.80;6.47;;;10.20;99.90;;;;;;5072442;28;20586;-79
2022/12/30 05:16:08;;;;;;;21.95;10.70;;;10.20;99.90;;;;;;5064171;28;20248;-78
2022/12/30 05:18:35;;;;;;;10.90;5.78;;;10.20;99.90;;;;;;5072231;28;20562;-78
2022/12/30 05:21:02;;;;;;;10.38;5.10;;;10.20;99.90;;;;;;5072868;28;20632;-78
2022/12/30 05:26:16;;;;;;;9.20;4.32;;;10.20;99.90;;;;;;5073299;28;20227;-80
2022/12/30 05:28:43;;;;;;;7.00;3.47;;;10.10;99.90;;;;;;5061548;28;20585;-80
2022/12/30 05:31:14;;;;;;;10.07;3.00;;;10.10;99.90;;;;;;5072394;28;20227;-80
2022/12/30 05:33:41;;;;;;;6.30;3.53;;;10.10;99.90;;;;;;5072447;28;20304;-80
2022/12/30 05:36:09;;;;;;;5.43;3.15;;;10.00;99.90;;;;;;5073171;28;20247;-78
2022/12/30 05:38:39;;;;;;;7.10;2.13;;;9.90;99.90;;;;;;5072987;28;20223;-80
2022/12/30 05:41:08;;;;;;;5.03;2.03;;;9.90;99.90;;;;;;5073559;28;20264;-78
2022/12/30 05:43:35;;;;;;;3.45;1.75;;;9.80;99.90;;;;;;5066324;28;20220;-80
2022/12/30 05:46:02;;;;;;;7.13;2.55;;;9.80;99.90;;;;;;5076531;28;20252;-80
2022/12/30 05:48:31;;;;;;;5.97;2.20;;;9.80;99.90;;;;;;5076762;28;20223;-78
2022/12/30 05:50:58;;;;;;;4.78;2.60;;;9.80;99.90;;;;;;5074947;28;20747;-78
2022/12/30 05:53:27;;;;;;;12.40;7.28;;;9.80;99.90;;;;;;5077217;28;20256;-80
2022/12/30 05:55:54;;;;;;;6.78;2.42;;;9.90;99.90;;;;;;5073421;28;20265;-78
2022/12/30 05:58:24;;;;;;;4.53;1.95;;;9.80;99.90;;;;;;5068750;28;20236;-78
2022/12/30 06:00:52;;;;;;;3.45;2.38;;;9.80;99.90;;;;;;5084034;28;20239;-78
2022/12/30 06:03:22;;;;;;;2.55;1.95;;;9.80;99.90;;;;;;5077612;28;20260;-78
2022/12/30 06:05:56;;;;;;;3.40;2.80;;;9.80;99.90;;;;;;5078509;28;20255;-78
2022/12/30 06:08:23;;;;;;;3.90;1.80;;;9.80;99.90;;;;;;5078725;28;20220;-77
2022/12/30 06:10:50;;;;;;;10.77;5.30;;;9.70;99.90;;;;;;5080740;28;20682;-79
2022/12/30 06:13:17;;;;;;;12.30;2.95;;;9.70;99.90;;;;;;5079214;28;20661;-80
2022/12/30 06:15:44;;;;;;;5.13;2.90;;;9.60;99.90;;;;;;5084049;28;20570;-80
2022/12/30 06:18:11;;;;;;;7.47;2.95;;;9.60;99.90;;;;;;5084337;28;20224;-80
2022/12/30 06:20:38;;;;;;;4.50;1.63;;;9.60;99.90;;;;;;5091201;28;20228;-79
2022/12/30 06:23:08;;;;;;;2.63;1.75;;;9.50;99.90;;;;;;5095278;28;20281;-79
2022/12/30 06:25:38;;;;;;;8.27;3.65;;;9.40;99.90;;;;;;5096128;28;20215;-80
2022/12/30 06:28:05;;;;;;;14.63;7.30;;;9.40;99.90;;;;;;5094809;28;20292;-79
2022/12/30 06:30:41;;;;;;;12.60;7.78;;;9.40;99.90;;;;;;5096686;28;20220;-79
2022/12/30 06:33:09;;;;;;;14.15;6.43;;;9.40;99.90;;;;;;5093306;28;20275;-80
2022/12/30 06:35:36;;;;;;;4.75;2.78;;;9.40;99.90;;;;;;5097501;28;20219;-79
2022/12/30 06:38:08;;;;;;;4.57;2.50;;;9.40;99.90;;;;;;5094950;28;20228;-80
2022/12/30 06:40:35;;;;;;;4.00;2.97;;;9.30;99.90;;;;;;5095830;28;20224;-79
2022/12/30 06:43:02;;;;;;;5.50;2.70;;;9.30;99.90;;;;;;5094096;28;20224;-79
2022/12/30 06:45:29;;;;;;;5.22;2.38;;;9.20;99.90;;;;;;5096053;28;20220;-79
2022/12/30 06:47:58;;;;;;;5.10;2.40;;;9.20;99.90;;;;;;5091779;28;20212;-79
2022/12/30 06:50:25;;;;;;;4.00;2.35;;;9.20;99.90;;;;;;5084213;28;20235;-77
2022/12/30 06:52:52;;;;;;;13.43;6.10;;;9.20;99.90;;;;;;5090267;28;20228;-79
2022/12/30 06:55:21;;;;;;;2.88;1.65;;;9.10;99.90;;;;;;5086884;28;20250;-79
2022/12/30 06:57:48;;;;;;;6.32;2.47;;;9.10;99.90;;;;;;5087155;28;20220;-78
2022/12/30 07:00:16;;;;;;;4.63;2.10;;;9.10;99.90;;;;;;5085207;28;20267;-77
2022/12/30 07:02:45;;;;;;;6.88;2.03;;;9.10;99.90;;;;;;5082626;28;20224;-79
2022/12/30 07:05:12;;;;;;;3.90;2.75;;;9.10;99.90;;;;;;5081658;28;20255;-78
2022/12/30 07:07:41;;;;;;;3.75;1.70;;;9.00;99.90;;;;;;5080756;28;20251;-77
2022/12/30 07:10:08;;;;;;;5.55;2.30;;;9.00;99.90;;;;;;5078397;28;20242;-77
2022/12/30 07:12:37;;;;;;;5.15;2.20;;;9.00;99.90;;;;;;5079044;28;20248;-77
2022/12/30 07:15:06;;;;;;;6.78;2.58;;;9.00;99.90;;;;;;5077041;28;20255;-77
2022/12/30 07:17:34;;;;;;;4.43;2.63;;;8.90;99.90;;;;;;5076591;28;20250;-77
2022/12/30 07:20:00;;;;;;;6.35;2.58;;;9.00;99.90;;;;;;5075813;28;20239;-77
2022/12/30 07:22:27;;;;;;;3.67;2.45;;;8.90;99.90;;;;;;5076130;28;20565;-77
2022/12/30 07:24:57;;;;;;;3.22;2.00;;;8.90;99.90;;;;;;5075342;28;20255;-79
2022/12/30 07:27:27;;;;;;;6.35;2.67;;;8.90;99.90;;;;;;5076501;28;20646;-79
2022/12/30 07:29:56;;;;;;;9.13;2.47;;;8.80;99.90;;;;;;5075727;28;20255;-78
2022/12/30 07:32:23;;;;;;;5.22;1.95;;;8.80;99.90;;;;;;5075573;28;20232;-79
2022/12/30 07:34:50;;;;;;;5.80;2.50;;;8.90;99.90;;;;;;5075915;28;20220;-79
2022/12/30 07:37:17;;;;;;;2.53;2.10;;;8.90;99.90;;;;;;5074816;28;20673;-77
2022/12/30 07:39:44;;;;;;;5.22;2.10;;;8.80;99.90;;;;;;5074967;28;20247;-77
2022/12/30 07:42:14;;;;;;;5.05;2.00;;;8.80;99.90;;;;;;5072619;28;20220;-77
2022/12/30 07:44:41;;;;;;;4.18;2.28;;;8.70;99.90;;;;;;5076008;28;20216;-78
2022/12/30 07:47:09;;;;;;;6.28;1.73;;;8.70;99.90;;;;;;5075070;28;20224;-78
2022/12/30 07:49:36;;;;;;;5.75;2.50;;;8.70;99.90;;;;;;5075040;28;20260;-78
2022/12/30 07:52:09;;;;;;;4.28;2.33;;;8.70;99.90;;;;;;5074318;28;20224;-77
2022/12/30 07:54:36;;;;;;;3.03;2.35;;;8.70;99.90;;;;;;5075111;28;20224;-77
2022/12/30 07:57:03;;;;;;;6.93;2.38;;;8.70;99.90;;;;;;5075286;28;20607;-77
2022/12/30 07:59:30;;;;;;;5.97;2.70;;;8.70;99.90;;;;;;5074816;28;20227;-76
2022/12/30 08:02:00;;;;;;;2.25;1.50;;;8.70;99.90;;;;;;5074019;28;20385;-77
2022/12/30 08:04:29;;;;;;;4.22;2.80;;;8.70;99.90;;;;;;5074921;28;20220;-78
2022/12/30 08:06:55;;;;;;;7.35;3.40;;;8.70;99.90;;;;;;5073680;28;20228;-79
2022/12/30 08:09:23;;;;;;;9.90;4.25;;;8.70;99.90;;;;;;5073487;28;20326;-79
2022/12/30 08:11:52;;;;;;;12.82;4.07;;;8.70;99.90;;;;;;5074278;28;20227;-79
2022/12/30 08:14:19;;;;;;;8.77;4.13;;;8.70;99.90;;;;;;5073433;28;20224;-79
2022/12/30 08:16:46;;;;;;;8.93;4.22;;;8.70;99.90;;;;;;5063827;28;20303;-79
2022/12/30 08:19:16;;;;;;;6.97;4.15;;;8.70;99.90;;;;;;5062741;28;20291;-80
2022/12/30 08:21:45;;;;;;;6.32;3.58;;;8.70;99.90;;;;;;5073721;28;20242;-79
2022/12/30 08:24:17;;;;;;;5.70;3.97;;;8.60;99.90;;;;;;5063670;28;20604;-78
2022/12/30 08:32:42;;;;;;;12.98;5.25;;;8.60;99.90;;;;;;5061884;28;20237;-77
2022/12/30 08:35:37;;;;;;;7.53;3.92;;;8.60;99.90;;;;;;5060349;28;20232;-76
2022/12/30 08:38:10;;;;;;;6.47;3.40;;;8.60;99.90;;;;;;5040181;28;20228;-77
2022/12/30 08:40:38;;;;;;;5.65;2.65;;;8.60;99.90;;;;;;5062530;28;20238;-77
2022/12/30 08:43:24;;;;;;;7.32;2.30;;;8.60;99.90;;;;;;5060009;28;20228;-77
2022/12/30 08:46:37;;;;;;;9.82;3.45;;;8.60;99.90;;;;;;5062428;28;20224;-76
2022/12/30 08:49:25;;;;;;;5.88;3.20;;;8.60;99.90;;;;;;5062202;28;20271;-76
2022/12/30 08:52:05;;;;;;;4.15;2.35;;;8.60;99.90;;;;;;5073047;28;20685;-77
2022/12/30 08:57:47;;;;;;;15.02;9.07;;;8.70;99.90;;;;;;5017147;28;20255;-77
2022/12/30 09:00:22;;;;;;;12.75;4.43;;;8.70;99.90;;;;;;5072091;28;20685;-78
2022/12/30 09:02:58;;;;;;;9.30;4.45;;;8.70;99.90;;;;;;5062116;28;20215;-77
2022/12/30 09:05:42;;;;;;;3.67;2.75;;;8.70;99.90;;;;;;5072533;28;20661;-77
2022/12/30 09:08:14;;;;;;;7.45;4.03;;;8.70;99.90;;;;;;5065918;28;20673;-77
2022/12/30 09:10:46;;;;;;;4.40;2.35;;;8.70;99.90;;;;;;5072004;28;20228;-77
2022/12/30 09:13:24;;;;;;;4.60;3.20;;;8.70;99.90;;;;;;5072127;28;20238;-78
2022/12/30 09:15:54;;;;;;;4.63;1.90;;;8.80;99.90;;;;;;5072174;28;20230;-77
2022/12/30 09:18:22;;;;;;;8.23;2.40;;;8.80;99.90;;;;;;5061240;28;20258;-77
2022/12/30 09:20:50;;;;;;;6.68;2.50;;;8.80;99.90;;;;;;5055981;28;20303;-76
2022/12/30 09:23:18;;;;;;;6.93;2.70;;;8.80;99.90;;;;;;5068519;28;20307;-77
2022/12/30 09:26:15;;;;;;;;;;;;;;;;;;;;;
2022/12/30 09:28:44;;;;;;;11.63;4.78;;;8.90;99.90;;;;;;5047557;28;20529;-77
2022/12/30 09:31:27;;;;;;;8.38;2.55;;;8.90;99.90;;;;;;5065746;28;20278;-77
2022/12/30 09:34:04;;;;;;;7.90;1.92;;;8.90;99.90;;;;;;5073479;28;20319;-78
2022/12/30 09:36:37;;;;;;;3.75;3.20;;;9.00;99.90;;;;;;5075053;28;20228;-77
2022/12/30 09:39:13;;;;;;;5.60;2.45;;;9.00;99.90;;;;;;5075414;28;20223;-76
2022/12/30 09:44:53;;;;;;;2.75;2.05;;;9.00;99.90;;;;;;5075822;28;20632;-77
2022/12/30 09:47:28;;;;;;;5.70;3.22;;;9.00;99.90;;;;;;5076234;28;20236;-77
2022/12/30 09:50:01;;;;;;;6.18;4.03;;;9.10;99.90;;;;;;5062288;28;20227;-78
2022/12/30 09:52:36;;;;;;;5.53;3.80;;;9.20;99.90;;;;;;5064028;28;20230;-77
2022/12/30 09:55:13;;;;;;;5.22;3.10;;;9.20;99.90;;;;;;5074765;28;20220;-77
2022/12/30 09:57:43;;;;;;;7.43;2.40;;;9.30;99.90;;;;;;5063987;28;20235;-77
2022/12/30 10:00:25;;;;;;;10.07;3.03;;;9.30;99.90;;;;;;5076953;28;20238;-77
2022/12/30 10:03:01;;;;;;;16.23;6.10;;;9.40;99.90;;;;;;5078616;28;20673;-78
2022/12/30 10:05:55;;;;;;;7.97;3.47;;;9.40;99.90;;;;;;5086795;28;20657;-77
2022/12/30 10:08:43;;;;;;;5.07;2.63;;;9.50;99.90;;;;;;5077487;28;20212;-79
2022/12/30 10:11:51;;;;;;;5.72;3.05;;;9.50;99.90;;;;;;5069670;28;20239;-77
2022/12/30 10:14:27;;;;;;;5.70;2.25;;;9.50;99.90;;;;;;5086900;28;20220;-77
2022/12/30 10:17:08;;;;;;;7.32;3.10;;;9.60;99.90;;;;;;5056324;28;20326;-77
2022/12/30 10:19:52;;;;;;;6.65;2.28;;;9.60;99.90;;;;;;5055702;28;20693;-79
2022/12/30 10:22:51;;;;;;;2.60;1.92;;;9.70;99.90;;;;;;5062912;28;20235;-77
2022/12/30 10:25:31;;;;;;;18.20;10.25;;;9.70;99.90;;;;;;5074708;28;20220;-77
2022/12/30 10:28:01;;;;;;;11.95;4.57;;;9.80;99.90;;;;;;5075646;28;20234;-77
2022/12/30 10:30:36;;;;;;;6.78;4.15;;;9.80;99.90;;;;;;5074138;28;20657;-78
2022/12/30 10:33:08;;;;;;;10.23;6.20;;;9.80;99.90;;;;;;5075167;28;20289;-78
2022/12/30 10:35:42;;;;;;;7.45;2.25;;;9.90;99.90;;;;;;5074899;28;20239;-77
2022/12/30 10:38:12;;;;;;;6.00;2.30;;;10.00;99.90;;;;;;5067833;28;20280;-79
2022/12/30 10:40:53;;;;;;;8.32;4.22;;;10.00;99.90;;;;;;5052485;28;20233;-79
2022/12/30 10:43:33;;;;;;;5.50;3.25;;;10.10;99.90;;;;;;5064452;28;20238;-79
2022/12/30 10:46:33;;;;;;;5.18;1.92;;;10.10;99.90;;;;;;5065122;28;20227;-79
2022/12/30 10:49:19;;;;;;;5.93;4.18;;;10.20;99.90;;;;;;5074941;28;20236;-79
2022/12/30 10:51:49;;;;;;;8.07;4.15;;;10.20;99.90;;;;;;5074316;28;20861;-80
2022/12/30 10:54:17;;;;;;;4.50;2.10;;;10.20;99.90;;;;;;5074799;28;20561;-78
2022/12/30 10:57:08;;;;;;;3.15;1.60;;;10.20;99.90;;;;;;5063839;28;20212;-78
2022/12/30 10:59:37;;;;;;;5.35;1.75;;;10.30;99.90;;;;;;5074492;28;20224;-77
2022/12/30 11:02:16;;;;;;;5.90;2.65;;;10.30;99.90;;;;;;5074256;28;20224;-79
2022/12/30 11:04:45;;;;;;;4.72;2.67;;;10.40;99.90;;;;;;5062950;28;20592;-79
2022/12/30 11:07:14;;;;;;;5.25;2.60;;;10.40;99.90;;;;;;5074580;28;20302;-78
2022/12/30 11:09:42;;;;;;;5.80;2.25;;;10.40;99.90;;;;;;5074357;28;20240;-79
2022/12/30 11:15:19;;;;;;;6.35;2.08;;;10.40;99.90;;;;;;5076445;28;20262;-78
2022/12/30 11:17:58;;;;;;;5.35;2.58;;;10.40;99.90;;;;;;5073331;28;20220;-78
2022/12/30 11:20:38;;;;;;;3.65;2.38;;;10.50;99.90;;;;;;5074376;28;20236;-78
2022/12/30 11:23:29;;;;;;;4.32;1.88;;;10.50;99.90;;;;;;5073628;28;20311;-79
2022/12/30 11:25:56;;;;;;;3.22;1.92;;;10.50;99.90;;;;;;5073679;28;20616;-78
2022/12/30 11:28:28;;;;;;;8.77;2.22;;;10.50;99.90;;;;;;5073541;28;20224;-78
2022/12/30 11:30:59;;;;;;;11.07;2.53;;;10.60;99.90;;;;;;5073167;28;20239;-78
2022/12/30 11:33:36;;;;;;;4.90;3.30;;;10.70;99.90;;;;;;5056106;28;20239;-77
2022/12/30 11:36:34;;;;;;;4.47;3.08;;;10.70;99.90;;;;;;5070709;28;20224;-77
2022/12/30 11:39:24;;;;;;;5.85;2.05;;;10.80;99.90;;;;;;5073423;28;20278;-78
2022/12/30 11:41:53;;;;;;;4.80;2.33;;;10.80;99.90;;;;;;5073388;28;20220;-79
2022/12/30 11:44:23;;;;;;;7.00;2.17;;;10.80;99.90;;;;;;5073731;28;20325;-79
2022/12/30 11:46:53;;;;;;;5.55;2.15;;;10.80;99.90;;;;;;5062929;28;20289;-79
2022/12/30 11:49:32;;;;;;;6.75;2.72;;;10.90;99.90;;;;;;5073313;28;20590;-79
2022/12/30 11:52:09;;;;;;;3.10;1.88;;;10.90;99.90;;;;;;5064977;28;20231;-79
2022/12/30 11:54:43;;;;;;;5.22;1.83;;;10.90;99.90;;;;;;5072874;28;20220;-80
2022/12/30 11:57:22;;;;;;;5.75;2.58;;;10.90;99.90;;;;;;5060482;28;20677;-78
2022/12/30 11:59:52;;;;;;;19.55;8.27;;;10.90;99.90;;;;;;5073419;28;20302;-79
2022/12/30 12:02:26;;;;;;;4.43;3.00;;;10.90;99.90;;;;;;5072868;28;20224;-79
2022/12/30 12:04:54;;;;;;;3.20;2.78;;;10.90;99.90;;;;;;5073473;28;20282;-77
2022/12/30 12:07:26;;;;;;;3.65;1.80;;;10.90;99.90;;;;;;5072737;28;20543;-77
2022/12/30 12:10:15;;;;;;;4.43;2.83;;;11.00;99.90;;;;;;5073873;28;20224;-77
2022/12/30 12:12:48;;;;;;;9.85;3.28;;;11.00;99.90;;;;;;5073787;28;20299;-78
2022/12/30 12:15:25;;;;;;;3.88;2.08;;;10.90;99.90;;;;;;5075249;28;20295;-77
2022/12/30 12:18:01;;;;;;;3.38;2.00;;;10.90;99.90;;;;;;5076595;28;20578;-78
2022/12/30 12:20:58;;;;;;;4.45;1.90;;;10.80;99.90;;;;;;5078356;28;20228;-78
2022/12/30 12:23:34;;;;;;;3.95;2.30;;;10.70;99.90;;;;;;5080633;28;20291;-78
2022/12/30 12:29:05;;;;;;;5.95;2.15;;;10.60;99.90;;;;;;5074938;28;20302;-79
2022/12/30 12:32:07;;;;;;;4.43;1.80;;;10.70;99.90;;;;;;5066212;28;20315;-79
2022/12/30 12:34:46;;;;;;;10.50;2.65;;;10.60;99.90;;;;;;5071915;28;20219;-79
2022/12/30 12:37:27;;;;;;;5.18;2.88;;;10.60;99.90;;;;;;5071927;28;20327;-77
2022/12/30 12:40:09;;;;;;;5.78;1.98;;;10.60;99.90;;;;;;5073517;28;20310;-76
2022/12/30 12:42:45;;;;;;;3.78;2.17;;;10.60;99.90;;;;;;5072631;28;20235;-76
2022/12/30 12:45:39;;;;;;;4.35;1.85;;;10.60;99.90;;;;;;5073415;28;20306;-79
2022/12/30 12:48:43;;;;;;;8.65;2.08;;;10.70;99.90;;;;;;5049948;28;20247;-77
2022/12/30 12:51:32;;;;;;;7.00;2.60;;;10.70;99.90;;;;;;5070818;28;20330;-77
2022/12/30 12:54:23;;;;;;;6.07;2.20;;;10.80;99.90;;;;;;5072133;28;20231;-77
2022/12/30 12:57:13;;;;;;;8.82;3.30;;;10.80;99.90;;;;;;5073161;28;20236;-77
2022/12/30 13:00:05;;;;;;;6.57;2.30;;;10.80;99.90;;;;;;5072785;28;20230;-77
2022/12/30 13:03:04;;;;;;;4.88;2.42;;;10.80;99.90;;;;;;5072922;28;20212;-77
2022/12/30 13:05:35;;;;;;;5.55;2.35;;;10.80;99.90;;;;;;5055567;28;20219;-78
2022/12/30 13:08:36;;;;;;;6.50;3.00;;;10.80;99.90;;;;;;5075206;28;20220;-77
2022/12/30 13:11:10;;;;;;;3.08;1.73;;;10.90;99.90;;;;;;5075681;28;20301;-77
2022/12/30 13:13:59;;;;;;;3.63;2.38;;;10.90;99.90;;;;;;5076595;28;20638;-77
2022/12/30 13:16:35;;;;;;;4.32;2.03;;;11.00;99.90;;;;;;5079418;28;20253;-77
2022/12/30 13:19:11;;;;;;;8.90;2.20;;;11.00;99.90;;;;;;5076516;28;20303;-78
2022/12/30 13:21:39;;;;;;;6.53;3.78;;;11.00;99.90;;;;;;5076710;28;20302;-78
2022/12/30 13:24:08;;;;;;;5.57;3.67;;;10.90;99.90;;;;;;5065339;28;20658;-79
2022/12/30 13:26:37;;;;;;;9.48;5.30;;;10.90;99.90;;;;;;5076621;28;20220;-80
2022/12/30 13:29:13;;;;;;;8.57;5.60;;;11.00;99.90;;;;;;5075498;28;20236;-78
2022/12/30 13:31:53;;;;;;;7.22;4.43;;;11.00;99.90;;;;;;5076441;28;20322;-78
2022/12/30 13:34:29;;;;;;;11.70;6.45;;;11.00;99.90;;;;;;5075223;28;20561;-78
2022/12/30 13:37:19;;;;;;;8.05;2.78;;;11.10;99.90;;;;;;5075768;28;20301;-78
2022/12/30 13:39:49;;;;;;;3.75;2.55;;;11.00;99.90;;;;;;5075527;28;20216;-77
2022/12/30 13:42:43;;;;;;;5.88;2.58;;;11.10;99.90;;;;;;5075709;28;20311;-77
2022/12/30 13:45:54;;;;;;;3.10;2.15;;;11.10;99.90;;;;;;5075688;28;20298;-79
2022/12/30 13:48:23;;;;;;;6.82;2.20;;;11.10;99.90;;;;;;5063459;28;20650;-79
2022/12/30 13:51:01;;;;;;;6.63;2.33;;;11.10;99.90;;;;;;5075644;28;20286;-77
2022/12/30 13:53:44;;;;;;;2.08;1.60;;;11.10;99.90;;;;;;5075816;28;20228;-77
2022/12/30 13:56:30;;;;;;;7.35;2.10;;;11.10;99.90;;;;;;5063812;28;20277;-79
2022/12/30 13:59:17;;;;;;;3.63;2.28;;;11.10;99.90;;;;;;5075254;28;20697;-77
2022/12/30 14:01:50;;;;;;;6.15;3.30;;;11.10;99.90;;;;;;5075632;28;20227;-79
2022/12/30 14:04:44;;;;;;;6.18;4.07;;;11.10;99.90;;;;;;5073967;28;20223;-79
2022/12/30 14:07:45;;;;;;;3.97;2.10;;;11.00;99.90;;;;;;5074999;28;20224;-77
2022/12/30 14:10:41;;;;;;;2.75;1.95;;;11.00;99.90;;;;;;5075026;28;20237;-77
2022/12/30 14:13:23;;;;;;;6.07;2.03;;;11.00;99.90;;;;;;5074840;28;20224;-77
2022/12/30 14:15:59;;;;;;;6.68;2.17;;;11.00;99.90;;;;;;5076142;28;20246;-76
2022/12/30 14:18:36;;;;;;;4.97;2.10;;;11.00;99.90;;;;;;5076609;28;20306;-79
2022/12/30 14:21:05;;;;;;;9.05;2.95;;;11.00;99.90;;;;;;5079057;28;20273;-79
2022/12/30 14:23:47;;;;;;;5.00;2.10;;;11.00;99.90;;;;;;5076226;28;20610;-77
2022/12/30 14:26:39;;;;;;;10.45;2.85;;;10.90;99.90;;;;;;5078425;28;20303;-79
2022/12/30 14:29:26;;;;;;;7.95;2.80;;;10.90;99.90;;;;;;5079522;28;20258;-79